createdAt,value
2023-02-11T00:02:18.574Z,1.57
2023-02-11T00:04:46.384Z,1.66
2023-02-11T00:07:14.247Z,1.73
2023-02-11T00:09:42.307Z,1.79
2023-02-11T00:12:10.446Z,1.80
2023-02-11T00:14:38.196Z,1.80
2023-02-11T00:17:07.874Z,1.82
2023-02-11T00:19:35.593Z,1.79
2023-02-11T00:22:03.265Z,1.79
2023-02-11T00:24:31.108Z,1.76
2023-02-11T00:27:00.484Z,1.78
2023-02-11T00:29:31.363Z,1.78
2023-02-11T00:32:06.342Z,1.72
2023-02-11T00:34:38.813Z,1.64
2023-02-11T00:37:08.898Z,1.67
2023-02-11T00:39:41.153Z,1.68
2023-02-11T00:42:19.554Z,1.67
2023-02-11T00:44:49.752Z,1.64
2023-02-11T00:47:19.341Z,1.64
2023-02-11T00:49:49.066Z,1.68
2023-02-11T00:52:19.594Z,1.65
2023-02-11T00:54:47.599Z,1.68
2023-02-11T00:57:15.757Z,1.63
2023-02-11T00:59:43.467Z,1.63
2023-02-11T01:02:11.366Z,1.59
2023-02-11T01:04:39.473Z,1.45
2023-02-11T01:07:10.492Z,1.44
2023-02-11T01:09:39.217Z,1.45
2023-02-11T01:12:07.396Z,1.39
2023-02-11T01:14:35.152Z,1.35
2023-02-11T01:17:02.863Z,1.36
2023-02-11T01:19:30.755Z,1.40
2023-02-11T01:21:58.543Z,1.36
2023-02-11T01:24:27.623Z,1.40
2023-02-11T01:26:55.436Z,1.38
2023-02-11T01:29:25.316Z,1.42
2023-02-11T01:31:55.507Z,1.33
2023-02-11T01:34:23.281Z,1.32
2023-02-11T01:36:51.062Z,1.33
2023-02-11T01:39:18.766Z,1.28
2023-02-11T01:41:49.364Z,1.24
2023-02-11T01:44:28.467Z,1.19
2023-02-11T01:46:56.684Z,1.19
2023-02-11T01:49:28.296Z,1.25
2023-02-11T01:52:00.505Z,1.32
2023-02-11T01:54:50.602Z,1.38
2023-02-11T01:57:29.797Z,1.38
2023-02-11T02:00:12.276Z,1.41
2023-02-11T02:02:50.044Z,1.43
2023-02-11T02:05:25.358Z,1.37
2023-02-11T02:07:59.773Z,1.28
2023-02-11T02:10:29.868Z,1.18
2023-02-11T02:12:59.408Z,1.16
2023-02-11T02:15:30.099Z,1.21
2023-02-11T02:18:09.313Z,1.34
2023-02-11T02:21:19.937Z,1.41
2023-02-11T02:24:17.393Z,1.45
2023-02-11T02:27:04.221Z,1.41
2023-02-11T02:30:00.757Z,1.36
2023-02-11T02:32:44.088Z,1.33
2023-02-11T02:35:20.236Z,1.32
2023-02-11T02:37:52.556Z,1.28
2023-02-11T02:40:24.808Z,1.30
2023-02-11T02:42:53.808Z,1.32
2023-02-11T02:45:22.225Z,1.36
2023-02-11T02:47:51.655Z,1.20
2023-02-11T02:50:27.609Z,0.94
2023-02-11T02:53:05.634Z,0.85
2023-02-11T02:55:46.401Z,0.74
2023-02-11T02:58:34.674Z,0.69
2023-02-11T03:01:09.424Z,0.70
2023-02-11T03:03:46.170Z,0.75
2023-02-11T03:06:22.879Z,0.80
2023-02-11T03:08:56.585Z,0.84
2023-02-11T03:11:25.548Z,0.90
2023-02-11T03:13:55.870Z,0.85
2023-02-11T03:16:27.249Z,0.73
2023-02-11T03:19:04.102Z,0.72
2023-02-11T03:21:33.930Z,0.74
2023-02-11T03:24:06.798Z,0.71
2023-02-11T03:26:39.144Z,0.73
2023-02-11T03:29:14.423Z,0.71
2023-02-11T03:31:52.161Z,0.74
2023-02-11T03:34:28.567Z,0.92
2023-02-11T03:37:01.246Z,0.91
2023-02-11T03:39:35.060Z,1.00
2023-02-11T03:42:05.187Z,1.05
2023-02-11T03:44:38.455Z,1.07
2023-02-11T03:47:11.458Z,1.02
2023-02-11T03:49:43.223Z,1.06
2023-02-11T03:52:12.811Z,1.06
2023-02-11T03:54:44.193Z,1.06
2023-02-11T03:57:11.935Z,1.06
2023-02-11T03:59:54.266Z,1.12
2023-02-11T04:02:23.344Z,1.04
2023-02-11T04:04:52.476Z,1.01
2023-02-11T04:07:20.462Z,1.05
2023-02-11T04:09:48.304Z,1.09
2023-02-11T04:12:16.251Z,1.10
2023-02-11T04:14:43.953Z,1.07
2023-02-11T04:17:12.209Z,1.04
2023-02-11T04:19:40.055Z,1.04
2023-02-11T04:22:09.276Z,1.10
2023-02-11T04:24:37.236Z,1.20
2023-02-11T04:27:05.111Z,1.24
2023-02-11T04:29:33.052Z,1.32
2023-02-11T04:32:00.833Z,1.31
2023-02-11T04:34:28.940Z,1.29
2023-02-11T04:36:56.623Z,1.27
2023-02-11T04:39:25.925Z,1.26
2023-02-11T04:41:53.637Z,1.33
2023-02-11T04:44:21.593Z,1.49
2023-02-11T04:46:49.322Z,1.51
2023-02-11T04:49:17.771Z,1.41
2023-02-11T04:51:49.205Z,1.27
2023-02-11T04:54:17.752Z,1.12
2023-02-11T04:56:46.990Z,1.06
2023-02-11T04:59:14.765Z,0.99
2023-02-11T05:01:42.744Z,0.89
2023-02-11T05:04:10.532Z,0.83
2023-02-11T05:06:39.711Z,0.82
2023-02-11T05:09:07.677Z,0.89
2023-02-11T05:11:36.596Z,0.99
2023-02-11T05:14:06.168Z,1.14
2023-02-11T05:16:34.220Z,1.15
2023-02-11T05:19:02.122Z,1.18
2023-02-11T05:21:30.202Z,1.21
2023-02-11T05:23:57.925Z,1.23
2023-02-11T05:26:25.773Z,1.25
2023-02-11T05:28:53.596Z,1.31
2023-02-11T05:31:22.657Z,1.31
2023-02-11T05:33:50.318Z,1.33
2023-02-11T05:36:18.286Z,1.34
2023-02-11T05:38:46.041Z,1.33
2023-02-11T05:41:13.969Z,1.33
2023-02-11T05:43:41.729Z,1.36
2023-02-11T05:46:09.583Z,1.43
2023-02-11T05:48:39.032Z,1.55
2023-02-11T05:51:07.003Z,1.54
2023-02-11T05:53:34.784Z,1.55
2023-02-11T05:56:03.026Z,1.59
2023-02-11T05:58:30.785Z,1.53
2023-02-11T06:00:58.686Z,1.51
2023-02-11T06:03:26.558Z,1.53
2023-02-11T06:05:55.705Z,1.74
2023-02-11T06:08:23.423Z,1.71
2023-02-11T06:10:51.355Z,1.67
2023-02-11T06:13:19.777Z,1.71
2023-02-11T06:15:56.932Z,1.56
2023-02-11T06:18:24.764Z,1.51
2023-02-11T06:20:52.499Z,1.47
2023-02-11T06:23:21.618Z,1.44
2023-02-11T06:25:49.880Z,1.46
2023-02-11T06:28:18.336Z,1.33
2023-02-11T06:30:46.059Z,1.22
2023-02-11T06:33:14.685Z,1.14
2023-02-11T06:35:42.650Z,1.08
2023-02-11T06:38:10.518Z,0.96
